sensor_id;sensor_type;location;lat;lon;timestamp;pressure;altitude;pressure_sealevel;temperature;humidity
7834;BME280;3962;42.696;23.354;2023-05-08T00:02:05;95335.13;;;14.40;67.36
7834;BME280;3962;42.696;23.354;2023-05-08T00:04:32;95344.00;;;14.40;67.13
7834;BME280;3962;42.696;23.354;2023-05-08T00:06:59;95343.16;;;14.32;67.50
7834;BME280;3962;42.696;23.354;2023-05-08T00:09:26;95337.47;;;14.27;67.28
7834;BME280;3962;42.696;23.354;2023-05-08T00:11:52;95340.84;;;14.29;67.41
7834;BME280;3962;42.696;23.354;2023-05-08T00:14:24;95348.38;;;14.25;67.62
7834;BME280;3962;42.696;23.354;2023-05-08T00:16:53;95339.34;;;14.26;67.50
7834;BME280;3962;42.696;23.354;2023-05-08T00:19:20;95344.03;;;14.32;67.67
7834;BME280;3962;42.696;23.354;2023-05-08T00:21:47;95346.00;;;14.30;67.71
7834;BME280;3962;42.696;23.354;2023-05-08T00:24:14;95342.31;;;14.23;68.26
7834;BME280;3962;42.696;23.354;2023-05-08T00:26:41;95342.28;;;14.15;68.15
7834;BME280;3962;42.696;23.354;2023-05-08T00:29:09;95346.97;;;14.13;68.36
7834;BME280;3962;42.696;23.354;2023-05-08T00:31:39;95354.69;;;14.08;68.33
7834;BME280;3962;42.696;23.354;2023-05-08T00:34:05;95352.50;;;14.12;68.48
7834;BME280;3962;42.696;23.354;2023-05-08T00:36:35;95357.22;;;14.18;67.79
7834;BME280;3962;42.696;23.354;2023-05-08T00:39:11;95352.34;;;14.13;67.94
7834;BME280;3962;42.696;23.354;2023-05-08T00:41:38;95356.38;;;14.17;68.37
7834;BME280;3962;42.696;23.354;2023-05-08T00:44:07;95352.84;;;14.17;67.69
7834;BME280;3962;42.696;23.354;2023-05-08T00:46:34;95349.50;;;14.15;67.83
7834;BME280;3962;42.696;23.354;2023-05-08T00:49:03;95358.19;;;14.09;68.31
7834;BME280;3962;42.696;23.354;2023-05-08T00:51:30;95361.03;;;14.07;67.70
7834;BME280;3962;42.696;23.354;2023-05-08T00:53:58;95365.22;;;14.10;68.12
7834;BME280;3962;42.696;23.354;2023-05-08T00:56:27;95360.22;;;14.07;68.53
7834;BME280;3962;42.696;23.354;2023-05-08T00:58:55;95363.38;;;14.02;68.80
7834;BME280;3962;42.696;23.354;2023-05-08T01:01:22;95354.66;;;13.92;68.99
7834;BME280;3962;42.696;23.354;2023-05-08T01:03:53;95362.53;;;13.94;69.01
7834;BME280;3962;42.696;23.354;2023-05-08T01:06:21;95364.03;;;13.96;68.46
7834;BME280;3962;42.696;23.354;2023-05-08T01:08:48;95371.22;;;13.96;68.61
7834;BME280;3962;42.696;23.354;2023-05-08T01:11:22;95365.03;;;13.87;69.18
7834;BME280;3962;42.696;23.354;2023-05-08T01:13:53;95367.34;;;13.82;69.18
7834;BME280;3962;42.696;23.354;2023-05-08T01:16:28;95356.50;;;13.76;69.08
7834;BME280;3962;42.696;23.354;2023-05-08T01:19:05;95370.16;;;13.73;69.16
7834;BME280;3962;42.696;23.354;2023-05-08T01:21:40;95357.13;;;13.62;69.92
7834;BME280;3962;42.696;23.354;2023-05-08T01:24:29;95369.47;;;13.63;70.82
7834;BME280;3962;42.696;23.354;2023-05-08T01:27:31;95370.50;;;13.62;70.61
7834;BME280;3962;42.696;23.354;2023-05-08T01:30:32;95370.63;;;13.60;71.06
7834;BME280;3962;42.696;23.354;2023-05-08T01:33:16;95366.00;;;13.62;70.51
7834;BME280;3962;42.696;23.354;2023-05-08T01:35:52;95358.63;;;13.64;70.58
7834;BME280;3962;42.696;23.354;2023-05-08T01:38:26;95350.97;;;13.69;70.14
7834;BME280;3962;42.696;23.354;2023-05-08T01:41:04;95363.97;;;13.64;70.31
7834;BME280;3962;42.696;23.354;2023-05-08T01:43:40;95360.31;;;13.65;70.30
7834;BME280;3962;42.696;23.354;2023-05-08T01:46:15;95354.47;;;13.70;69.65
7834;BME280;3962;42.696;23.354;2023-05-08T01:49:05;95354.09;;;13.65;70.18
7834;BME280;3962;42.696;23.354;2023-05-08T01:51:39;95351.75;;;13.54;71.00
7834;BME280;3962;42.696;23.354;2023-05-08T01:54:10;95354.06;;;13.49;70.37
7834;BME280;3962;42.696;23.354;2023-05-08T01:56:39;95354.88;;;13.33;71.12
7834;BME280;3962;42.696;23.354;2023-05-08T01:59:09;95346.66;;;13.19;72.41
7834;BME280;3962;42.696;23.354;2023-05-08T02:01:38;95354.63;;;13.11;72.21
7834;BME280;3962;42.696;23.354;2023-05-08T02:04:13;95363.13;;;13.06;72.72
7834;BME280;3962;42.696;23.354;2023-05-08T02:06:41;95356.41;;;13.02;72.88
7834;BME280;3962;42.696;23.354;2023-05-08T02:09:19;95361.72;;;12.94;73.48
7834;BME280;3962;42.696;23.354;2023-05-08T02:11:52;95359.56;;;12.98;73.14
7834;BME280;3962;42.696;23.354;2023-05-08T02:14:21;95357.69;;;12.90;73.84
7834;BME280;3962;42.696;23.354;2023-05-08T02:17:03;95356.94;;;12.80;73.40
7834;BME280;3962;42.696;23.354;2023-05-08T02:19:39;95357.75;;;12.73;74.13
7834;BME280;3962;42.696;23.354;2023-05-08T02:22:07;95362.41;;;12.71;73.83
7834;BME280;3962;42.696;23.354;2023-05-08T02:24:35;95359.22;;;12.67;74.67
7834;BME280;3962;42.696;23.354;2023-05-08T02:27:12;95365.38;;;12.68;74.89
7834;BME280;3962;42.696;23.354;2023-05-08T02:29:41;95362.72;;;12.68;74.98
7834;BME280;3962;42.696;23.354;2023-05-08T02:32:13;95361.03;;;12.67;75.08
7834;BME280;3962;42.696;23.354;2023-05-08T02:38:08;95363.56;;;12.68;74.67
7834;BME280;3962;42.696;23.354;2023-05-08T02:40:40;95366.84;;;12.62;74.99
7834;BME280;3962;42.696;23.354;2023-05-08T02:43:09;95367.38;;;12.66;75.38
7834;BME280;3962;42.696;23.354;2023-05-08T02:45:42;95368.72;;;12.70;74.70
7834;BME280;3962;42.696;23.354;2023-05-08T02:48:13;95372.91;;;12.72;75.33
7834;BME280;3962;42.696;23.354;2023-05-08T02:50:52;95368.56;;;12.71;74.61
7834;BME280;3962;42.696;23.354;2023-05-08T02:56:49;95367.94;;;12.52;76.33
7834;BME280;3962;42.696;23.354;2023-05-08T03:06:10;95371.59;;;12.51;76.42
7834;BME280;3962;42.696;23.354;2023-05-08T03:08:41;95370.56;;;12.44;76.55
7834;BME280;3962;42.696;23.354;2023-05-08T03:11:13;95379.03;;;12.39;76.41
7834;BME280;3962;42.696;23.354;2023-05-08T03:13:45;95370.19;;;12.39;76.70
7834;BME280;3962;42.696;23.354;2023-05-08T03:16:17;95375.22;;;12.42;76.64
7834;BME280;3962;42.696;23.354;2023-05-08T03:18:49;95375.91;;;12.44;76.61
7834;BME280;3962;42.696;23.354;2023-05-08T03:21:19;95382.75;;;12.46;77.21
7834;BME280;3962;42.696;23.354;2023-05-08T03:27:10;95386.38;;;12.37;78.10
7834;BME280;3962;42.696;23.354;2023-05-08T03:29:41;95383.16;;;12.34;78.41
7834;BME280;3962;42.696;23.354;2023-05-08T03:32:10;95386.19;;;12.39;78.68
7834;BME280;3962;42.696;23.354;2023-05-08T03:34:42;95388.25;;;12.45;78.33
7834;BME280;3962;42.696;23.354;2023-05-08T03:37:10;95387.47;;;12.52;77.74
7834;BME280;3962;42.696;23.354;2023-05-08T03:43:01;95382.53;;;12.65;77.46
7834;BME280;3962;42.696;23.354;2023-05-08T03:45:34;95381.78;;;12.73;77.33
7834;BME280;3962;42.696;23.354;2023-05-08T03:48:02;95382.81;;;12.80;77.03
7834;BME280;3962;42.696;23.354;2023-05-08T03:50:34;95384.16;;;12.84;76.43
7834;BME280;3962;42.696;23.354;2023-05-08T03:53:02;95382.69;;;12.89;76.21
7834;BME280;3962;42.696;23.354;2023-05-08T03:55:30;95386.59;;;12.95;75.87
7834;BME280;3962;42.696;23.354;2023-05-08T03:58:02;95391.50;;;13.07;75.53
7834;BME280;3962;42.696;23.354;2023-05-08T07:48:55;95384.97;;;19.27;54.54
7834;BME280;3962;42.696;23.354;2023-05-08T07:51:24;95378.41;;;19.43;54.00
7834;BME280;3962;42.696;23.354;2023-05-08T07:53:53;95379.84;;;19.86;53.24
7834;BME280;3962;42.696;23.354;2023-05-08T07:56:19;95384.28;;;20.73;51.06
7834;BME280;3962;42.696;23.354;2023-05-08T07:58:47;95392.44;;;21.12;50.31
7834;BME280;3962;42.696;23.354;2023-05-08T08:01:21;95385.19;;;22.08;47.69
7834;BME280;3962;42.696;23.354;2023-05-08T08:03:48;95394.94;;;21.33;48.80
7834;BME280;3962;42.696;23.354;2023-05-08T08:06:16;95387.06;;;21.18;48.51
7834;BME280;3962;42.696;23.354;2023-05-08T08:08:48;95383.31;;;21.00;49.31
7834;BME280;3962;42.696;23.354;2023-05-08T08:11:15;95395.38;;;20.97;49.62
7834;BME280;3962;42.696;23.354;2023-05-08T08:13:42;95388.03;;;21.50;48.30
7834;BME280;3962;42.696;23.354;2023-05-08T08:16:09;95384.91;;;21.72;48.95
7834;BME280;3962;42.696;23.354;2023-05-08T08:18:42;95389.69;;;21.77;49.25
7834;BME280;3962;42.696;23.354;2023-05-08T08:21:09;95396.97;;;21.57;49.18
7834;BME280;3962;42.696;23.354;2023-05-08T08:23:37;95380.31;;;22.23;48.61
7834;BME280;3962;42.696;23.354;2023-05-08T08:26:10;95399.34;;;22.10;49.20
7834;BME280;3962;42.696;23.354;2023-05-08T08:28:37;95385.25;;;21.89;49.50
7834;BME280;3962;42.696;23.354;2023-05-08T08:31:04;95384.31;;;21.31;50.26
7834;BME280;3962;42.696;23.354;2023-05-08T08:33:30;95378.25;;;20.64;52.28
7834;BME280;3962;42.696;23.354;2023-05-08T08:35:57;95381.44;;;21.26;51.13
7834;BME280;3962;42.696;23.354;2023-05-08T08:38:27;95378.19;;;21.88;49.59
7834;BME280;3962;42.696;23.354;2023-05-08T08:41:48;95365.88;;;21.92;48.72
7834;BME280;3962;42.696;23.354;2023-05-08T08:44:15;95372.81;;;21.68;49.90
7834;BME280;3962;42.696;23.354;2023-05-08T08:46:46;95369.25;;;21.81;49.82
7834;BME280;3962;42.696;23.354;2023-05-08T08:49:17;95363.66;;;21.63;50.29
7834;BME280;3962;42.696;23.354;2023-05-08T08:51:49;95359.53;;;21.28;51.14
7834;BME280;3962;42.696;23.354;2023-05-08T08:54:20;95353.03;;;21.55;50.68
7834;BME280;3962;42.696;23.354;2023-05-08T08:56:54;95358.50;;;20.77;52.57
7834;BME280;3962;42.696;23.354;2023-05-08T08:59:22;95344.34;;;20.68;53.20
7834;BME280;3962;42.696;23.354;2023-05-08T09:01:55;95346.69;;;20.97;53.15
7834;BME280;3962;42.696;23.354;2023-05-08T09:04:22;95343.56;;;21.07;52.55
7834;BME280;3962;42.696;23.354;2023-05-08T09:06:52;95337.72;;;21.16;51.84
7834;BME280;3962;42.696;23.354;2023-05-08T09:09:19;95334.41;;;20.88;51.91
7834;BME280;3962;42.696;23.354;2023-05-08T09:11:47;95334.38;;;20.82;52.77
7834;BME280;3962;42.696;23.354;2023-05-08T09:14:15;95325.22;;;20.76;53.11
7834;BME280;3962;42.696;23.354;2023-05-08T09:16:42;95328.97;;;20.69;53.42
7834;BME280;3962;42.696;23.354;2023-05-08T09:19:12;95326.25;;;20.75;53.57
7834;BME280;3962;42.696;23.354;2023-05-08T09:21:40;95318.34;;;20.67;54.14
7834;BME280;3962;42.696;23.354;2023-05-08T09:24:07;95312.34;;;20.59;53.81
7834;BME280;3962;42.696;23.354;2023-05-08T09:26:35;95293.78;;;20.36;54.56
7834;BME280;3962;42.696;23.354;2023-05-08T09:29:13;95297.72;;;20.14;55.29
7834;BME280;3962;42.696;23.354;2023-05-08T09:31:42;95295.84;;;20.08;55.79
7834;BME280;3962;42.696;23.354;2023-05-08T09:34:21;95297.25;;;19.98;56.00
7834;BME280;3962;42.696;23.354;2023-05-08T09:36:49;95290.59;;;20.00;56.59
7834;BME280;3962;42.696;23.354;2023-05-08T09:39:21;95302.97;;;20.42;55.78
7834;BME280;3962;42.696;23.354;2023-05-08T09:41:58;95315.47;;;20.62;55.29
7834;BME280;3962;42.696;23.354;2023-05-08T09:44:25;95309.41;;;20.47;55.25
7834;BME280;3962;42.696;23.354;2023-05-08T09:47:08;95313.56;;;20.37;55.45
7834;BME280;3962;42.696;23.354;2023-05-08T09:52:14;95323.31;;;20.44;55.72
7834;BME280;3962;42.696;23.354;2023-05-08T09:54:41;95322.31;;;20.71;55.13
7834;BME280;3962;42.696;23.354;2023-05-08T09:57:11;95313.59;;;21.02;54.70
7834;BME280;3962;42.696;23.354;2023-05-08T09:59:38;95312.06;;;21.45;54.09
7834;BME280;3962;42.696;23.354;2023-05-08T10:02:13;95313.25;;;21.55;54.04
7834;BME280;3962;42.696;23.354;2023-05-08T10:04:41;95298.44;;;21.71;53.36
7834;BME280;3962;42.696;23.354;2023-05-08T10:07:08;95303.81;;;21.14;53.90
7834;BME280;3962;42.696;23.354;2023-05-08T10:09:35;95307.81;;;21.68;53.04
7834;BME280;3962;42.696;23.354;2023-05-08T10:12:02;95305.13;;;21.62;52.94
7834;BME280;3962;42.696;23.354;2023-05-08T10:14:29;95307.50;;;21.32;53.93
7834;BME280;3962;42.696;23.354;2023-05-08T10:16:57;95305.66;;;21.26;53.99
7834;BME280;3962;42.696;23.354;2023-05-08T10:19:27;95305.13;;;21.55;53.80
7834;BME280;3962;42.696;23.354;2023-05-08T10:21:54;95299.09;;;21.66;53.01
7834;BME280;3962;42.696;23.354;2023-05-08T10:24:26;95294.53;;;21.47;53.70
7834;BME280;3962;42.696;23.354;2023-05-08T10:26:56;95289.72;;;21.56;53.83
7834;BME280;3962;42.696;23.354;2023-05-08T10:29:39;95287.81;;;21.69;53.06
7834;BME280;3962;42.696;23.354;2023-05-08T10:32:22;95283.97;;;21.90;52.90
7834;BME280;3962;42.696;23.354;2023-05-08T10:35:08;95284.25;;;22.19;52.30
7834;BME280;3962;42.696;23.354;2023-05-08T10:37:36;95284.81;;;22.28;51.93
7834;BME280;3962;42.696;23.354;2023-05-08T10:40:07;95277.97;;;22.19;52.67
7834;BME280;3962;42.696;23.354;2023-05-08T10:42:35;95282.00;;;22.10;52.96
7834;BME280;3962;42.696;23.354;2023-05-08T10:45:04;95277.63;;;22.09;53.29
7834;BME280;3962;42.696;23.354;2023-05-08T10:47:47;95271.22;;;22.03;54.40
7834;BME280;3962;42.696;23.354;2023-05-08T10:50:35;95269.88;;;21.81;52.24
7834;BME280;3962;42.696;23.354;2023-05-08T10:53:07;95271.84;;;21.48;52.55
7834;BME280;3962;42.696;23.354;2023-05-08T10:55:38;95257.88;;;21.51;53.04
7834;BME280;3962;42.696;23.354;2023-05-08T10:58:12;95264.56;;;21.99;52.37
7834;BME280;3962;42.696;23.354;2023-05-08T11:01:11;95270.97;;;21.67;53.38
7834;BME280;3962;42.696;23.354;2023-05-08T11:03:47;95260.03;;;21.87;52.92
7834;BME280;3962;42.696;23.354;2023-05-08T11:06:45;95262.03;;;22.66;51.23
7834;BME280;3962;42.696;23.354;2023-05-08T11:09:20;95260.66;;;23.42;49.51
7834;BME280;3962;42.696;23.354;2023-05-08T11:12:03;95248.66;;;23.67;48.15
7834;BME280;3962;42.696;23.354;2023-05-08T11:14:32;95245.00;;;24.09;45.80
7834;BME280;3962;42.696;23.354;2023-05-08T11:17:06;95236.53;;;23.70;46.12
7834;BME280;3962;42.696;23.354;2023-05-08T11:19:33;95233.56;;;23.71;46.46
7834;BME280;3962;42.696;23.354;2023-05-08T11:22:16;95221.94;;;23.82;45.73
7834;BME280;3962;42.696;23.354;2023-05-08T11:24:48;95226.09;;;23.67;46.24
7834;BME280;3962;42.696;23.354;2023-05-08T11:27:16;95224.44;;;24.13;46.42
7834;BME280;3962;42.696;23.354;2023-05-08T11:29:43;95221.66;;;24.84;44.32
7834;BME280;3962;42.696;23.354;2023-05-08T11:32:10;95218.91;;;24.20;44.21
7834;BME280;3962;42.696;23.354;2023-05-08T11:34:55;95214.38;;;24.43;44.37
7834;BME280;3962;42.696;23.354;2023-05-08T11:37:23;95210.53;;;24.97;42.98
7834;BME280;3962;42.696;23.354;2023-05-08T11:39:50;95209.59;;;25.03;42.74
7834;BME280;3962;42.696;23.354;2023-05-08T11:42:32;95205.69;;;24.87;43.08
7834;BME280;3962;42.696;23.354;2023-05-08T11:45:07;95193.97;;;24.87;42.08
7834;BME280;3962;42.696;23.354;2023-05-08T11:47:37;95191.72;;;24.84;42.72
7834;BME280;3962;42.696;23.354;2023-05-08T11:50:07;95183.31;;;24.74;42.50
7834;BME280;3962;42.696;23.354;2023-05-08T11:55:15;95186.75;;;24.81;42.81
7834;BME280;3962;42.696;23.354;2023-05-08T11:57:48;95173.59;;;25.12;42.56
7834;BME280;3962;42.696;23.354;2023-05-08T12:00:22;95169.84;;;25.02;42.41
7834;BME280;3962;42.696;23.354;2023-05-08T12:02:50;95173.72;;;24.71;42.99
7834;BME280;3962;42.696;23.354;2023-05-08T12:05:25;95162.75;;;24.55;44.06
7834;BME280;3962;42.696;23.354;2023-05-08T12:07:55;95167.22;;;23.49;45.84
7834;BME280;3962;42.696;23.354;2023-05-08T12:10:23;95153.00;;;23.47;45.91
7834;BME280;3962;42.696;23.354;2023-05-08T12:13:00;95157.03;;;23.74;46.11
7834;BME280;3962;42.696;23.354;2023-05-08T12:18:30;95160.69;;;24.39;44.02
7834;BME280;3962;42.696;23.354;2023-05-08T12:20:58;95156.69;;;24.76;44.03
7834;BME280;3962;42.696;23.354;2023-05-08T12:23:26;95160.81;;;25.36;42.11
7834;BME280;3962;42.696;23.354;2023-05-08T12:25:58;95149.19;;;25.68;41.11
7834;BME280;3962;42.696;23.354;2023-05-08T12:28:26;95153.00;;;25.67;41.05
7834;BME280;3962;42.696;23.354;2023-05-08T12:30:56;95147.22;;;25.24;42.01
7834;BME280;3962;42.696;23.354;2023-05-08T12:33:24;95132.66;;;24.96;42.55
7834;BME280;3962;42.696;23.354;2023-05-08T12:35:53;95151.09;;;24.36;43.25
7834;BME280;3962;42.696;23.354;2023-05-08T12:38:24;95139.19;;;23.96;44.16
7834;BME280;3962;42.696;23.354;2023-05-08T12:40:51;95132.97;;;24.19;44.63
7834;BME280;3962;42.696;23.354;2023-05-08T12:43:30;95143.59;;;24.09;44.05
7834;BME280;3962;42.696;23.354;2023-05-08T12:45:57;95135.41;;;23.79;44.20
7834;BME280;3962;42.696;23.354;2023-05-08T12:48:25;95145.00;;;23.82;44.47
7834;BME280;3962;42.696;23.354;2023-05-08T12:50:52;95145.22;;;23.21;46.01
7834;BME280;3962;42.696;23.354;2023-05-08T12:53:20;95144.75;;;23.42;46.07
7834;BME280;3962;42.696;23.354;2023-05-08T12:58:26;95120.78;;;23.21;46.09
7834;BME280;3962;42.696;23.354;2023-05-08T13:01:03;95128.22;;;23.08;46.17
7834;BME280;3962;42.696;23.354;2023-05-08T13:03:30;95123.50;;;22.19;53.02
7834;BME280;3962;42.696;23.354;2023-05-08T13:06:00;95142.59;;;20.80;58.35
7834;BME280;3962;42.696;23.354;2023-05-08T13:08:31;95148.50;;;20.25;60.58
7834;BME280;3962;42.696;23.354;2023-05-08T13:10:59;95154.91;;;19.92;62.20
7834;BME280;3962;42.696;23.354;2023-05-08T13:13:45;95152.81;;;19.74;63.52
7834;BME280;3962;42.696;23.354;2023-05-08T13:16:12;95154.50;;;19.88;62.23
7834;BME280;3962;42.696;23.354;2023-05-08T13:18:42;95160.97;;;20.07;62.00
7834;BME280;3962;42.696;23.354;2023-05-08T13:21:13;95155.81;;;20.12;62.11
7834;BME280;3962;42.696;23.354;2023-05-08T13:23:41;95159.09;;;20.33;61.57
7834;BME280;3962;42.696;23.354;2023-05-08T13:26:08;95176.56;;;19.98;61.22
7834;BME280;3962;42.696;23.354;2023-05-08T13:28:47;95173.56;;;19.61;62.61
7834;BME280;3962;42.696;23.354;2023-05-08T13:31:14;95175.53;;;19.26;63.34
7834;BME280;3962;42.696;23.354;2023-05-08T13:33:41;95164.00;;;18.98;64.84
7834;BME280;3962;42.696;23.354;2023-05-08T13:36:08;95177.03;;;18.88;65.68
7834;BME280;3962;42.696;23.354;2023-05-08T13:38:35;95176.16;;;18.82;66.23
7834;BME280;3962;42.696;23.354;2023-05-08T13:41:04;95180.97;;;18.92;66.50
7834;BME280;3962;42.696;23.354;2023-05-08T13:43:31;95183.16;;;19.10;66.38
7834;BME280;3962;42.696;23.354;2023-05-08T13:46:02;95197.00;;;19.47;65.65
7834;BME280;3962;42.696;23.354;2023-05-08T13:48:29;95197.56;;;19.30;65.88
7834;BME280;3962;42.696;23.354;2023-05-08T13:50:56;95206.13;;;19.06;66.19
7834;BME280;3962;42.696;23.354;2023-05-08T13:53:23;95198.28;;;19.04;66.74
7834;BME280;3962;42.696;23.354;2023-05-08T13:55:50;95209.09;;;19.17;66.35
7834;BME280;3962;42.696;23.354;2023-05-08T13:58:17;95203.06;;;19.15;66.20
7834;BME280;3962;42.696;23.354;2023-05-08T14:00:44;95217.75;;;19.00;67.16
7834;BME280;3962;42.696;23.354;2023-05-08T14:03:12;95209.81;;;18.92;67.74
7834;BME280;3962;42.696;23.354;2023-05-08T14:05:39;95211.25;;;18.88;67.50
7834;BME280;3962;42.696;23.354;2023-05-08T14:08:07;95223.41;;;18.77;67.73
7834;BME280;3962;42.696;23.354;2023-05-08T14:10:35;95226.38;;;18.89;67.96
7834;BME280;3962;42.696;23.354;2023-05-08T14:13:03;95227.25;;;18.96;67.95
7834;BME280;3962;42.696;23.354;2023-05-08T14:15:36;95226.25;;;19.03;68.16
7834;BME280;3962;42.696;23.354;2023-05-08T14:18:03;95242.22;;;19.05;68.27
7834;BME280;3962;42.696;23.354;2023-05-08T14:20:32;95253.22;;;19.03;68.89
7834;BME280;3962;42.696;23.354;2023-05-08T14:22:59;95253.69;;;18.79;69.89
7834;BME280;3962;42.696;23.354;2023-05-08T14:25:27;95252.75;;;18.60;71.51
7834;BME280;3962;42.696;23.354;2023-05-08T14:27:53;95262.59;;;18.46;73.55
7834;BME280;3962;42.696;23.354;2023-05-08T14:30:21;95255.88;;;17.94;73.58
7834;BME280;3962;42.696;23.354;2023-05-08T14:32:51;95266.97;;;17.84;74.24
7834;BME280;3962;42.696;23.354;2023-05-08T14:35:33;95272.25;;;17.78;74.19
7834;BME280;3962;42.696;23.354;2023-05-08T14:38:00;95280.72;;;17.75;73.91
7834;BME280;3962;42.696;23.354;2023-05-08T14:40:27;95274.75;;;17.58;73.44
7834;BME280;3962;42.696;23.354;2023-05-08T14:42:54;95273.63;;;17.53;73.63
7834;BME280;3962;42.696;23.354;2023-05-08T14:45:21;95293.19;;;17.61;73.69
7834;BME280;3962;42.696;23.354;2023-05-08T14:47:48;95273.19;;;17.35;73.61
7834;BME280;3962;42.696;23.354;2023-05-08T14:50:15;95285.06;;;17.40;73.88
7834;BME280;3962;42.696;23.354;2023-05-08T14:52:43;95293.66;;;17.50;72.73
7834;BME280;3962;42.696;23.354;2023-05-08T14:55:12;95289.63;;;17.40;72.25
7834;BME280;3962;42.696;23.354;2023-05-08T14:57:45;95301.03;;;17.27;72.15
7834;BME280;3962;42.696;23.354;2023-05-08T15:00:16;95303.91;;;17.11;72.75
7834;BME280;3962;42.696;23.354;2023-05-08T15:02:43;95311.22;;;17.03;72.64
7834;BME280;3962;42.696;23.354;2023-05-08T15:05:11;95310.69;;;17.07;72.13
7834;BME280;3962;42.696;23.354;2023-05-08T15:07:38;95311.44;;;17.16;72.01
7834;BME280;3962;42.696;23.354;2023-05-08T15:10:07;95316.25;;;17.20;70.98
7834;BME280;3962;42.696;23.354;2023-05-08T15:15:09;95327.41;;;16.66;71.29
7834;BME280;3962;42.696;23.354;2023-05-08T15:17:36;95316.88;;;16.64;71.97
7834;BME280;3962;42.696;23.354;2023-05-08T15:20:07;95312.47;;;16.63;71.68
7834;BME280;3962;42.696;23.354;2023-05-08T15:22:35;95322.66;;;16.53;71.87
7834;BME280;3962;42.696;23.354;2023-05-08T15:25:15;95319.97;;;16.39;71.95
7834;BME280;3962;42.696;23.354;2023-05-08T15:32:46;95325.09;;;16.03;72.90
7834;BME280;3962;42.696;23.354;2023-05-08T15:35:16;95324.53;;;16.08;72.53
7834;BME280;3962;42.696;23.354;2023-05-08T15:37:44;95329.91;;;16.08;72.90
7834;BME280;3962;42.696;23.354;2023-05-08T15:40:30;95327.41;;;15.84;72.98
7834;BME280;3962;42.696;23.354;2023-05-08T15:43:11;95331.28;;;15.81;73.99
7834;BME280;3962;42.696;23.354;2023-05-08T15:45:41;95331.06;;;15.91;73.72
7834;BME280;3962;42.696;23.354;2023-05-08T15:48:08;95334.50;;;15.99;73.22
7834;BME280;3962;42.696;23.354;2023-05-08T15:50:42;95340.41;;;15.95;73.26
7834;BME280;3962;42.696;23.354;2023-05-08T15:53:23;95341.31;;;15.87;73.54
7834;BME280;3962;42.696;23.354;2023-05-08T15:55:54;95350.28;;;15.72;74.21
7834;BME280;3962;42.696;23.354;2023-05-08T15:58:23;95338.28;;;15.60;75.54
7834;BME280;3962;42.696;23.354;2023-05-08T16:00:53;95336.81;;;15.49;76.12
7834;BME280;3962;42.696;23.354;2023-05-08T16:03:35;95337.19;;;15.46;76.52
7834;BME280;3962;42.696;23.354;2023-05-08T16:11:22;95332.13;;;15.51;76.65
7834;BME280;3962;42.696;23.354;2023-05-08T16:13:49;95343.84;;;15.50;76.20
7834;BME280;3962;42.696;23.354;2023-05-08T16:16:16;95351.88;;;15.58;75.99
7834;BME280;3962;42.696;23.354;2023-05-08T16:18:47;95350.84;;;15.59;76.03
7834;BME280;3962;42.696;23.354;2023-05-08T16:24:07;95358.31;;;15.72;75.13
7834;BME280;3962;42.696;23.354;2023-05-08T16:26:35;95357.38;;;15.57;75.33
7834;BME280;3962;42.696;23.354;2023-05-08T16:29:02;95348.72;;;15.47;75.61
7834;BME280;3962;42.696;23.354;2023-05-08T16:31:29;95339.69;;;15.48;75.60
7834;BME280;3962;42.696;23.354;2023-05-08T16:33:56;95352.03;;;15.57;75.31
7834;BME280;3962;42.696;23.354;2023-05-08T16:36:22;95353.03;;;15.56;75.49
7834;BME280;3962;42.696;23.354;2023-05-08T16:38:51;95348.03;;;15.53;75.43
7834;BME280;3962;42.696;23.354;2023-05-08T16:41:17;95351.03;;;15.58;75.49
7834;BME280;3962;42.696;23.354;2023-05-08T16:48:57;95345.28;;;15.38;75.42
7834;BME280;3962;42.696;23.354;2023-05-08T16:51:30;95348.28;;;15.35;75.66
7834;BME280;3962;42.696;23.354;2023-05-08T16:54:30;95358.84;;;15.37;75.73
7834;BME280;3962;42.696;23.354;2023-05-08T16:56:57;95364.72;;;15.32;75.87
7834;BME280;3962;42.696;23.354;2023-05-08T16:59:24;95365.22;;;15.28;76.39
7834;BME280;3962;42.696;23.354;2023-05-08T17:01:53;95365.56;;;15.33;76.18
7834;BME280;3962;42.696;23.354;2023-05-08T17:04:21;95366.25;;;15.35;76.34
7834;BME280;3962;42.696;23.354;2023-05-08T17:06:48;95371.41;;;15.36;75.96
7834;BME280;3962;42.696;23.354;2023-05-08T17:09:15;95362.75;;;15.18;76.70
7834;BME280;3962;42.696;23.354;2023-05-08T17:11:45;95363.38;;;15.20;76.66
7834;BME280;3962;42.696;23.354;2023-05-08T17:14:12;95375.13;;;15.19;77.16
7834;BME280;3962;42.696;23.354;2023-05-08T17:16:39;95371.44;;;15.20;77.84
7834;BME280;3962;42.696;23.354;2023-05-08T17:19:06;95374.47;;;15.17;78.52
7834;BME280;3962;42.696;23.354;2023-05-08T17:24:33;95386.72;;;15.12;80.36
7834;BME280;3962;42.696;23.354;2023-05-08T17:27:01;95388.09;;;15.00;81.80
7834;BME280;3962;42.696;23.354;2023-05-08T17:29:31;95388.28;;;14.82;83.02
7834;BME280;3962;42.696;23.354;2023-05-08T17:31:59;95386.81;;;14.64;83.84
7834;BME280;3962;42.696;23.354;2023-05-08T17:34:25;95399.53;;;14.62;85.38
7834;BME280;3962;42.696;23.354;2023-05-08T17:36:52;95405.88;;;14.61;86.66
7834;BME280;3962;42.696;23.354;2023-05-08T17:39:19;95405.56;;;14.56;86.27
7834;BME280;3962;42.696;23.354;2023-05-08T17:41:48;95409.72;;;14.59;87.07
7834;BME280;3962;42.696;23.354;2023-05-08T17:44:16;95413.09;;;14.61;87.01
7834;BME280;3962;42.696;23.354;2023-05-08T17:46:43;95418.47;;;14.61;86.18
7834;BME280;3962;42.696;23.354;2023-05-08T17:49:10;95413.41;;;14.58;86.43
7834;BME280;3962;42.696;23.354;2023-05-08T17:51:37;95421.78;;;14.63;87.59
7834;BME280;3962;42.696;23.354;2023-05-08T17:54:05;95417.94;;;14.65;88.28
7834;BME280;3962;42.696;23.354;2023-05-08T17:56:32;95424.47;;;14.55;88.42
7834;BME280;3962;42.696;23.354;2023-05-08T17:59:15;95421.81;;;14.55;88.83
7834;BME280;3962;42.696;23.354;2023-05-08T18:01:42;95432.50;;;14.55;89.08
7834;BME280;3962;42.696;23.354;2023-05-08T18:04:09;95428.66;;;14.41;89.58
7834;BME280;3962;42.696;23.354;2023-05-08T18:06:36;95430.00;;;14.37;90.06
7834;BME280;3962;42.696;23.354;2023-05-08T18:09:03;95433.53;;;14.46;90.58
7834;BME280;3962;42.696;23.354;2023-05-08T18:11:30;95438.69;;;14.39;90.78
7834;BME280;3962;42.696;23.354;2023-05-08T18:13:59;95431.00;;;14.36;90.60